Garland Springs, Arkansas
Current Conditions -  °F | °C
As of 9:56 PM on Sunday 21 Dec 2014 (Local Time) from KSRC Reporting Station
Overcast Overcast  
Wind Chill:   Ceiling: 8000
Heat Index:   Visibility: 10mi
Dew Point:   Wind: 3mph
Humidity: 68%   Direction: 80°E
Pressure: 29.93"   Gusts: NA
Location:  35.2847°N, 92.1468°W
Report Text: KSRC 220356Z AUTO 08003KT 10SM OVC080 08/03 A2993 RMK AO2 SLP144 T00830028 TSNO
Loading
Personal Weather Stations






























Interactive Weather Map New forecast layout! Learn more

10-Day Weather Forecast

Advertisements
Track Severe Weather on mobile